Frostburg, MD

5:24 AM EST on February 12, 2016 (GMT -0500)
Frost Avenue, Frostburg, MD | | Change Station
CLOSE
Current Station
Personal Weather Station
Location: Frostburg, MD
Elevation: 2100 ft
Nearby Weather Stations
Active Advisory: Wind Chill Watch

Elev 2100 ft 39.66 °N, 78.93 °W | Updated 27 minutes ago

Clear
Clear
4.1 °F
Feels Like 4 °F
N
0.0
Wind Variable Wind from NW
Gusts 0.0 mph

Today
High -- | Low -- °F
--% Chance of Precip.
Yesterday
High -- | Low -- °F
Precip. -- in
Pressure 30.30 in
Visibility 10.0 miles
Clouds Clear
Windchill 4 °F
Dew Point -8 °F
Humidity 56%
Rainfall 0.00 in
Snow Depth Not available.
7:12 AM 5:48 PM
Waxing Crescent, 19% visible
METAR KCBE 121021Z AUTO 00000KT 10SM CLR M12/M15 A3030 RMK AO1
Pressure 30.30 in
Visibility 10.0 miles
Clouds Clear
Windchill 4 °F
Dew Point -8 °F
Humidity 56%
Rainfall 0.00 in
Snow Depth Not available.
7:12 AM 5:48 PM
Waxing Crescent, 19% visible
METAR KCBE 121021Z AUTO 00000KT 10SM CLR M12/M15 A3030 RMK AO1

10-Day Weather Forecast

Almanac

Astronomy

Feb. 12, 2016 Rise Set
Actual Time
Civil Twilight
Nautical Twilight
Astronomical Twilight
Moon
Length of Visible Light
Length of Day
Tomorrow will be .
, % of the Moon is Illuminated

Today's Extremes

State Highs State Lows

Community

WunderPhotos

Upload Photos

1,892,289 photos uploaded!

WunderBlog® & News

Nearby

Air Quality

  Air Quality AQ Index Pollutant
Not available.

Snow Depth

Station Depth Elevation

Earthquake Activity

City Distance Mag. Time & Date
Minimum magnitude displayed is 2.5.

Coastal Water Temperatures

Place Temperature

Stations

Nearby Weather Stations

Station Location Temp. Windchill Dew Point Humidity Wind Precip. Elev Updated Type
                   

Watches & Warnings

Wind Chill Watch
Issued: 3:41 AM EST Feb. 12, 2016 – National Weather Service

... Wind chill watch in effect from late tonight through Sunday
morning...

The National Weather Service in Baltimore MD/Washington has
issued a wind chill watch... which is in effect from late tonight
through Sunday morning.


* Wind chill readings... potential for wind chills as low as 25
below.

* Timing... beginning after midnight tonight... and continuing into
Sunday morning.

* Impacts... frost bite and hypothermia are possible if
precautions are not taken.

* Winds... northwest 10 to 20 mph with gusts up to 45 mph.

* Temperatures... in the single digits tonight and Saturday. Below
zero Saturday night and Sunday.

Precautionary/preparedness actions...

A wind chill watch means the there is the potential for a
combination of very cold air and strong winds to create
dangerously low wind chill values. Monitor the latest forecasts
and warnings for updates on this situation.



Hts